createdAt,value
2023-04-05T00:01:25.477Z,-2.64
2023-04-05T00:05:30.676Z,-2.67
2023-04-05T00:09:32.721Z,-2.69
2023-04-05T00:13:34.761Z,-2.81
2023-04-05T00:17:36.865Z,-2.84
2023-04-05T00:21:39.772Z,-2.86
2023-04-05T00:25:41.846Z,-2.93
2023-04-05T00:29:43.539Z,-3.01
2023-04-05T00:33:46.426Z,-3.08
2023-04-05T00:37:48.494Z,-3.17
2023-04-05T00:41:50.626Z,-3.17
2023-04-05T00:45:53.324Z,-3.25
2023-04-05T00:49:55.458Z,-3.30
2023-04-05T00:53:57.945Z,-3.34
2023-04-05T00:58:00.423Z,-3.42
2023-04-05T01:02:24.578Z,-3.52
2023-04-05T01:06:47.802Z,-3.61
2023-04-05T01:10:57.296Z,-3.61
2023-04-05T01:15:00.312Z,-3.68
2023-04-05T01:19:04.204Z,-3.72
2023-04-05T01:23:34.279Z,-3.73
2023-04-05T01:27:59.366Z,-3.82
2023-04-05T01:32:11.586Z,-3.86
2023-04-05T01:36:39.629Z,-3.84
2023-04-05T01:40:42.386Z,-3.80
2023-04-05T01:44:44.684Z,-3.86
2023-04-05T01:48:46.924Z,-3.83
2023-04-05T01:52:49.743Z,-3.90
2023-04-05T01:56:51.963Z,-3.97
2023-04-05T02:00:56.141Z,-3.96
2023-04-05T02:04:58.846Z,-3.97
2023-04-05T02:09:01.093Z,-4.01
2023-04-05T02:13:03.210Z,-4.07
2023-04-05T02:17:05.771Z,-4.20
2023-04-05T02:21:10.723Z,-4.23
2023-04-05T02:25:13.303Z,-4.25
2023-04-05T02:29:15.435Z,-4.28
2023-04-05T02:33:17.559Z,-4.31
2023-04-05T02:37:20.828Z,-4.35
2023-04-05T02:41:23.821Z,-4.43
2023-04-05T02:45:27.825Z,-4.42
2023-04-05T02:49:32.359Z,-4.44
2023-04-05T02:53:37.560Z,-4.48
2023-04-05T02:57:46.374Z,-4.62
2023-04-05T03:02:01.536Z,-4.65
2023-04-05T03:06:11.397Z,-4.67
2023-04-05T03:10:18.797Z,-4.71
2023-04-05T03:14:25.621Z,-4.78
2023-04-05T03:18:29.689Z,-4.75
2023-04-05T03:22:39.878Z,-4.78
2023-04-05T03:26:46.749Z,-4.67
2023-04-05T03:30:50.997Z,-4.69
2023-04-05T03:34:55.361Z,-4.54
2023-04-05T03:38:58.059Z,-4.41
2023-04-05T03:43:00.178Z,-4.28
2023-04-05T03:47:02.547Z,-4.20
2023-04-05T03:51:06.470Z,-4.10
2023-04-05T03:55:09.493Z,-4.02
2023-04-05T03:59:11.741Z,-3.92
2023-04-05T04:03:15.218Z,-3.75
2023-04-05T04:07:21.134Z,-3.66
2023-04-05T04:11:23.149Z,-3.56
2023-04-05T04:15:25.475Z,-3.48
2023-04-05T04:19:52.015Z,-3.32
2023-04-05T04:24:20.366Z,-3.16
2023-04-05T04:28:43.808Z,-3.04
2023-04-05T04:33:10.099Z,-2.92
2023-04-05T04:37:31.028Z,-2.83
2023-04-05T04:41:54.920Z,-2.60
2023-04-05T04:46:19.009Z,-2.43
2023-04-05T04:50:36.027Z,-2.28
2023-04-05T04:54:42.323Z,-2.20
2023-04-05T04:58:44.426Z,-2.05
2023-04-05T05:02:47.105Z,-1.91
2023-04-05T05:06:54.166Z,-1.77
2023-04-05T05:10:56.826Z,-1.64
2023-04-05T05:14:59.253Z,-1.43
2023-04-05T05:19:01.643Z,-1.25
2023-04-05T05:23:13.507Z,-1.06
2023-04-05T05:27:15.726Z,-0.97
2023-04-05T05:31:17.940Z,-0.84
2023-04-05T05:35:20.546Z,-0.83
2023-04-05T05:39:23.601Z,-0.63
2023-04-05T05:43:25.825Z,-0.52
2023-04-05T05:47:27.726Z,-0.44
2023-04-05T05:51:29.830Z,-0.30
2023-04-05T05:55:32.176Z,-0.19
2023-04-05T05:59:34.446Z,-0.06
2023-04-05T06:03:36.666Z,-0.02
2023-04-05T06:07:39.111Z,0.22
2023-04-05T06:11:53.316Z,0.39
2023-04-05T06:16:01.286Z,0.39
2023-04-05T06:20:03.617Z,0.50
2023-04-05T06:24:06.022Z,0.48
2023-04-05T06:28:08.193Z,0.60
2023-04-05T06:32:10.539Z,0.58
2023-04-05T06:36:13.012Z,0.75
2023-04-05T06:40:15.702Z,0.92
2023-04-05T06:44:17.783Z,0.99
2023-04-05T06:48:21.284Z,1.00
2023-04-05T06:52:23.238Z,1.20
2023-04-05T06:56:25.421Z,1.38
2023-04-05T07:00:27.622Z,1.53
2023-04-05T07:04:33.221Z,1.56
2023-04-05T07:08:35.537Z,1.54
2023-04-05T07:12:37.969Z,1.52
2023-04-05T07:16:40.086Z,1.81
2023-04-05T07:20:42.218Z,1.47
2023-04-05T07:24:47.091Z,1.61
2023-04-05T07:28:49.024Z,1.47
2023-04-05T07:32:51.215Z,1.57
2023-04-05T07:36:53.470Z,1.56
2023-04-05T07:40:55.687Z,1.75
2023-04-05T07:44:58.234Z,1.60
2023-04-05T07:49:00.500Z,1.74
2023-04-05T07:53:02.633Z,1.90
2023-04-05T07:57:04.640Z,1.93
2023-04-05T08:01:08.432Z,1.87
2023-04-05T08:05:10.627Z,2.05
2023-04-05T08:09:12.751Z,2.21
2023-04-05T08:13:14.809Z,2.14
2023-04-05T08:17:17.939Z,2.06
2023-04-05T08:21:20.011Z,1.93
2023-04-05T08:25:22.141Z,1.66
2023-04-05T08:29:24.257Z,1.71
2023-04-05T08:33:26.562Z,1.64
2023-04-05T08:37:28.773Z,1.89
2023-04-05T08:41:36.523Z,1.42
2023-04-05T08:45:46.877Z,1.17
2023-04-05T08:49:49.523Z,1.29
2023-04-05T08:53:52.898Z,1.55
2023-04-05T08:57:59.262Z,1.55
2023-04-05T09:02:03.998Z,1.55
2023-04-05T09:06:09.152Z,1.38
2023-04-05T09:10:14.609Z,1.71
2023-04-05T09:14:17.695Z,1.56
2023-04-05T09:18:26.773Z,1.78
2023-04-05T09:22:29.853Z,2.05
2023-04-05T09:30:37.207Z,1.74
2023-04-05T09:34:42.998Z,1.91
2023-04-05T09:39:08.549Z,1.98
2023-04-05T09:43:33.732Z,2.30
2023-04-05T09:47:35.497Z,2.10
2023-04-05T09:51:41.195Z,2.18
2023-04-05T09:55:46.121Z,2.12
2023-04-05T09:59:48.487Z,2.04
2023-04-05T10:03:50.718Z,2.21
2023-04-05T10:07:53.727Z,2.14
2023-04-05T10:11:57.118Z,2.31
2023-04-05T10:16:02.244Z,2.50
2023-04-05T10:20:19.684Z,2.62
2023-04-05T10:24:27.670Z,2.63
2023-04-05T10:28:37.782Z,2.72
2023-04-05T10:32:54.902Z,2.45
2023-04-05T10:37:03.946Z,2.72
2023-04-05T10:41:09.125Z,2.86
2023-04-05T10:45:15.591Z,3.22
2023-04-05T10:49:33.508Z,3.53
2023-04-05T10:53:37.693Z,3.57
2023-04-05T10:57:40.237Z,3.85
2023-04-05T11:01:43.280Z,3.72
2023-04-05T11:05:45.674Z,3.97
2023-04-05T11:09:55.896Z,3.75
2023-04-05T11:13:58.535Z,3.98
2023-04-05T11:18:16.032Z,3.71
2023-04-05T11:22:29.616Z,3.75
2023-04-05T11:26:53.069Z,3.46
2023-04-05T11:30:59.425Z,3.44
2023-04-05T11:35:06.305Z,3.56
2023-04-05T11:39:23.481Z,3.29
2023-04-05T11:43:27.875Z,3.46
2023-04-05T11:47:29.961Z,3.33
2023-04-05T11:51:33.224Z,3.13
2023-04-05T11:55:35.487Z,3.02
2023-04-05T11:59:37.484Z,3.25
2023-04-05T12:03:39.636Z,3.34
2023-04-05T12:07:41.789Z,3.37
2023-04-05T12:11:45.784Z,3.51
2023-04-05T12:15:48.021Z,3.76
2023-04-05T12:19:50.339Z,3.84
2023-04-05T12:23:53.351Z,3.80
2023-04-05T12:27:55.551Z,3.62
2023-04-05T12:31:57.711Z,3.80
2023-04-05T12:36:04.990Z,3.84
2023-04-05T12:40:08.237Z,4.19
2023-04-05T12:44:17.475Z,4.26
2023-04-05T12:48:27.123Z,4.75
2023-04-05T12:52:31.165Z,5.31
2023-04-05T12:56:33.420Z,5.62
2023-04-05T13:00:35.499Z,5.06
2023-04-05T13:04:37.509Z,5.06
2023-04-05T13:08:39.552Z,4.82
2023-04-05T13:12:41.693Z,4.99
2023-04-05T13:16:43.918Z,4.71
2023-04-05T13:20:46.551Z,4.30
2023-04-05T13:24:48.589Z,4.28
2023-04-05T13:28:50.875Z,4.34
2023-04-05T13:32:52.961Z,4.20
2023-04-05T13:36:54.993Z,4.34
2023-04-05T13:40:57.050Z,4.38
2023-04-05T13:44:59.045Z,4.16
2023-04-05T13:49:01.048Z,4.11
2023-04-05T13:53:02.664Z,3.88
2023-04-05T13:57:04.710Z,3.46
2023-04-05T14:01:06.853Z,3.54
2023-04-05T14:05:09.278Z,3.55
2023-04-05T14:09:11.604Z,3.69
2023-04-05T14:13:16.308Z,3.82
2023-04-05T14:17:18.688Z,3.94
2023-04-05T14:21:21.063Z,3.80
2023-04-05T14:25:23.064Z,4.01
2023-04-05T14:29:25.357Z,3.74
2023-04-05T14:33:27.431Z,3.87
2023-04-05T14:37:29.554Z,3.97
2023-04-05T14:41:31.612Z,4.08
2023-04-05T14:45:34.420Z,3.78
2023-04-05T14:49:36.450Z,3.77
2023-04-05T14:53:38.972Z,3.78
2023-04-05T14:57:41.527Z,3.76
2023-04-05T15:01:45.574Z,3.94
2023-04-05T15:05:48.370Z,4.18
2023-04-05T15:09:51.542Z,4.11
2023-04-05T15:13:53.585Z,4.15
2023-04-05T15:17:56.079Z,4.08
2023-04-05T15:21:58.269Z,3.93
2023-04-05T15:26:00.368Z,3.79
2023-04-05T15:30:03.773Z,4.01
2023-04-05T15:34:08.264Z,3.98
2023-04-05T15:38:10.563Z,3.91
2023-04-05T15:42:12.861Z,4.03
2023-04-05T15:46:14.941Z,3.89
2023-04-05T15:50:17.196Z,3.63
2023-04-05T15:54:20.827Z,3.66
2023-04-05T15:58:23.059Z,3.61
2023-04-05T16:02:27.820Z,3.28
2023-04-05T16:06:30.222Z,3.37
2023-04-05T16:10:32.257Z,3.40
2023-04-05T16:14:34.532Z,3.31
2023-04-05T16:18:37.087Z,3.36
2023-04-05T16:22:39.297Z,3.25
2023-04-05T16:26:41.383Z,3.09
2023-04-05T16:30:45.691Z,3.02
2023-04-05T16:34:49.572Z,2.86
2023-04-05T16:38:51.860Z,2.87
2023-04-05T16:42:55.070Z,2.84
2023-04-05T16:46:57.703Z,2.72
2023-04-05T16:51:00.838Z,2.67
2023-04-05T16:55:03.157Z,2.74
2023-04-05T16:59:07.573Z,2.58
2023-04-05T17:03:11.178Z,2.58
2023-04-05T17:07:13.644Z,2.48
2023-04-05T17:11:15.679Z,2.54
2023-04-05T17:15:17.847Z,2.42
2023-04-05T17:19:20.260Z,2.37
2023-04-05T17:23:24.023Z,2.34
2023-04-05T17:27:26.430Z,2.30
2023-04-05T17:31:28.787Z,2.22
2023-04-05T17:35:31.399Z,2.21
2023-04-05T17:39:33.742Z,2.18
2023-04-05T17:43:36.309Z,2.08
2023-04-05T17:47:38.620Z,2.09
2023-04-05T17:51:41.082Z,2.09
2023-04-05T17:55:43.799Z,2.02
2023-04-05T17:59:45.954Z,2.04
2023-04-05T18:03:48.139Z,2.03
2023-04-05T18:07:51.332Z,2.09
2023-04-05T18:11:53.812Z,2.01
2023-04-05T18:15:58.719Z,2.04
2023-04-05T18:20:01.170Z,1.94
2023-04-05T18:24:03.762Z,1.99
2023-04-05T18:28:19.417Z,1.97
2023-04-05T18:32:24.547Z,1.89
2023-04-05T18:36:27.019Z,1.86
2023-04-05T18:40:29.197Z,1.97
2023-04-05T18:44:31.621Z,1.92
2023-04-05T18:48:38.665Z,1.90
2023-04-05T18:52:41.151Z,1.79
2023-04-05T18:56:43.636Z,1.92
2023-04-05T19:00:45.942Z,1.85
2023-04-05T19:04:48.344Z,1.75
2023-04-05T19:08:50.934Z,1.82
2023-04-05T19:12:53.465Z,1.81
2023-04-05T19:16:56.093Z,1.75
2023-04-05T19:20:59.901Z,1.78
2023-04-05T19:25:02.122Z,1.76
2023-04-05T19:29:04.549Z,1.87
2023-04-05T19:33:06.943Z,1.82
2023-04-05T19:37:09.216Z,1.82
2023-04-05T19:41:11.210Z,1.80
2023-04-05T19:45:15.728Z,1.78
2023-04-05T19:49:34.338Z,1.85
2023-04-05T19:53:49.809Z,1.89
2023-04-05T19:57:52.087Z,1.81
2023-04-05T20:01:53.997Z,1.85
2023-04-05T20:06:13.374Z,1.82
2023-04-05T20:10:20.896Z,1.77
2023-04-05T20:14:35.288Z,1.88
2023-04-05T20:18:37.526Z,1.86
2023-04-05T20:46:39.109Z,1.69
2023-04-05T20:50:41.247Z,1.65
2023-04-05T20:54:44.153Z,1.63
2023-04-05T20:58:46.215Z,1.59
2023-04-05T21:02:48.494Z,1.51
2023-04-05T21:06:50.805Z,1.47
2023-04-05T21:10:56.567Z,1.47
2023-04-05T21:15:00.289Z,1.49
2023-04-05T21:19:02.530Z,1.43
2023-04-05T21:23:05.111Z,1.45
2023-04-05T21:27:07.256Z,1.47
2023-04-05T21:31:09.440Z,1.41
2023-04-05T21:35:11.850Z,1.38
2023-04-05T21:39:14.018Z,1.38
2023-04-05T21:43:16.234Z,1.32
2023-04-05T21:47:18.926Z,1.32
2023-04-05T21:51:21.492Z,1.45
2023-04-05T21:55:23.639Z,1.49
2023-04-05T21:59:26.092Z,1.52
2023-04-05T22:03:28.268Z,1.54
2023-04-05T22:07:30.691Z,1.63
2023-04-05T22:11:35.525Z,1.68
2023-04-05T22:15:37.990Z,1.63
2023-04-05T22:19:43.788Z,1.59
2023-04-05T22:23:46.583Z,1.53
2023-04-05T22:27:48.631Z,1.63
2023-04-05T22:31:50.899Z,1.64
2023-04-05T22:35:53.081Z,1.55
2023-04-05T22:39:55.165Z,1.63
2023-04-05T22:43:57.152Z,1.68
2023-04-05T22:47:59.444Z,1.66
2023-04-05T22:52:01.746Z,1.56
2023-04-05T22:56:03.878Z,1.58
2023-04-05T23:00:06.642Z,1.64
2023-04-05T23:04:09.257Z,1.63
2023-04-05T23:08:11.531Z,1.54
2023-04-05T23:12:13.850Z,1.55
2023-04-05T23:16:16.912Z,1.64
2023-04-05T23:20:19.233Z,1.57
2023-04-05T23:24:21.316Z,1.59
2023-04-05T23:28:23.385Z,1.56
2023-04-05T23:32:25.407Z,1.65
2023-04-05T23:36:28.861Z,1.68
2023-04-05T23:40:31.026Z,1.60
2023-04-05T23:44:33.326Z,1.52
2023-04-05T23:48:35.535Z,1.52
2023-04-05T23:52:37.593Z,1.53
2023-04-05T23:56:39.635Z,1.49
